createdAt,value
2022-08-07T00:00:46.309Z,9.711690
2022-08-07T00:02:37.155Z,9.711622
2022-08-07T00:02:46.332Z,9.711638
2022-08-07T00:03:47.430Z,9.711641
2022-08-07T00:04:45.475Z,9.711622
2022-08-07T00:05:45.276Z,9.711600
2022-08-07T00:06:51.929Z,9.711744
2022-08-07T00:07:46.253Z,9.711679
2022-08-07T00:08:45.243Z,9.711703
2022-08-07T00:10:04.700Z,9.711756
2022-08-07T00:10:48.095Z,9.712019
2022-08-07T00:11:54.476Z,9.711837
2022-08-07T00:12:59.708Z,9.711805
2022-08-07T00:13:46.206Z,9.711632
2022-08-07T00:14:45.195Z,9.711586
2022-08-07T00:15:46.774Z,9.711567
2022-08-07T00:16:46.185Z,9.711516
2022-08-07T00:17:45.171Z,9.711573
2022-08-07T00:18:45.170Z,9.711589
2022-08-07T00:20:02.619Z,9.711671
2022-08-07T00:20:46.149Z,9.711659
2022-08-07T00:21:55.547Z,9.711608
2022-08-07T00:22:51.545Z,9.711535
2022-08-07T00:23:46.133Z,9.711660
2022-08-07T00:24:45.121Z,9.711720
2022-08-07T00:25:45.828Z,9.711643
2022-08-07T00:26:58.927Z,9.711589
2022-08-07T00:27:52.136Z,9.711612
2022-08-07T00:28:56.619Z,9.711532
2022-08-07T00:29:46.079Z,9.711395
2022-08-07T00:30:45.089Z,9.711432
2022-08-07T00:36:46.613Z,9.711737
2022-08-07T00:37:47.973Z,9.711893
2022-08-07T00:38:46.608Z,9.711806
2022-08-07T00:39:46.601Z,9.711871
2022-08-07T00:40:47.587Z,9.711879
2022-08-07T00:41:53.819Z,9.711926
2022-08-07T00:42:47.570Z,9.711965
2022-08-07T00:44:01.309Z,9.711703
2022-08-07T00:44:47.547Z,9.711659
2022-08-07T00:45:46.723Z,9.711684
2022-08-07T00:46:46.533Z,9.711713
2022-08-07T00:48:08.866Z,9.711584
2022-08-07T00:48:49.995Z,9.711718
2022-08-07T00:50:19.825Z,9.711828
2022-08-07T00:50:51.537Z,9.711761
2022-08-07T00:51:57.538Z,9.711740
2022-08-07T00:52:47.707Z,9.711774
2022-08-07T00:53:50.640Z,9.711897
2022-08-07T00:54:47.492Z,9.711865
2022-08-07T00:56:03.301Z,9.712053
2022-08-07T00:56:49.797Z,9.712193
2022-08-07T00:57:55.764Z,9.711981
2022-08-07T00:58:49.859Z,9.711956
2022-08-07T00:59:47.426Z,9.712005
2022-08-07T01:00:53.923Z,9.712018
2022-08-07T01:01:48.488Z,9.712149
2022-08-07T01:02:46.403Z,9.711851
2022-08-07T01:03:55.928Z,9.711923
2022-08-07T01:04:47.391Z,9.711863
2022-08-07T01:05:51.630Z,9.712096
2022-08-07T01:06:47.373Z,9.711978
2022-08-07T01:07:46.366Z,9.711771
2022-08-07T01:08:53.775Z,9.711787
2022-08-07T01:10:05.988Z,9.711765
2022-08-07T01:10:47.648Z,9.712079
2022-08-07T01:12:27.536Z,9.712426
2022-08-07T01:12:54.078Z,9.712444
2022-08-07T01:13:55.916Z,9.712179
2022-08-07T01:14:47.303Z,9.712059
2022-08-07T01:16:00.781Z,9.712017
2022-08-07T01:16:48.105Z,9.712215
2022-08-07T01:17:46.302Z,9.711960
2022-08-07T01:18:46.279Z,9.712082
2022-08-07T01:19:54.390Z,9.712017
2022-08-07T01:20:57.219Z,9.712264
2022-08-07T01:21:47.256Z,9.712328
2022-08-07T01:22:47.001Z,9.712100
2022-08-07T01:23:47.231Z,9.712100
2022-08-07T01:24:47.484Z,9.711929
2022-08-07T01:25:55.222Z,9.711885
2022-08-07T01:26:47.905Z,9.712311
2022-08-07T01:27:50.040Z,9.711946
2022-08-07T01:28:48.360Z,9.711934
2022-08-07T01:29:46.188Z,9.711905
2022-08-07T01:30:47.031Z,9.711755
2022-08-07T01:31:48.359Z,9.711707
2022-08-07T01:32:46.171Z,9.711773
2022-08-07T01:33:56.068Z,9.711863
2022-08-07T01:34:49.147Z,9.711924
2022-08-07T01:35:53.239Z,9.711969
2022-08-07T01:36:52.735Z,9.711946
2022-08-07T01:37:47.128Z,9.711976
2022-08-07T01:38:46.112Z,9.711855
2022-08-07T01:39:46.876Z,9.711809
2022-08-07T01:40:46.094Z,9.711606
2022-08-07T01:42:07.623Z,9.711756
2022-08-07T01:42:57.524Z,9.711876
2022-08-07T01:43:47.076Z,9.711876
2022-08-07T01:44:47.867Z,9.711839
2022-08-07T01:45:46.560Z,9.712024
2022-08-07T01:46:46.047Z,9.712605
2022-08-07T01:48:20.069Z,9.712672
2022-08-07T01:48:47.599Z,9.712815
2022-08-07T01:49:46.029Z,9.713058
2022-08-07T01:50:46.022Z,9.713082
2022-08-07T01:52:02.301Z,9.712830
2022-08-07T01:52:49.385Z,9.712438
2022-08-07T01:54:09.428Z,9.712584
2022-08-07T01:54:46.987Z,9.712159
2022-08-07T01:55:45.983Z,9.711842
2022-08-07T01:56:49.362Z,9.711766
2022-08-07T01:58:01.259Z,9.711757
2022-08-07T01:58:46.950Z,9.711761
2022-08-07T01:59:45.950Z,9.711720
2022-08-07T02:00:49.994Z,9.711720
2022-08-07T02:01:59.646Z,9.711810
2022-08-07T02:03:19.177Z,9.711740
2022-08-07T02:03:50.143Z,9.711677
2022-08-07T02:04:52.584Z,9.711681
2022-08-07T02:05:59.398Z,9.711713
2022-08-07T02:06:46.882Z,9.711746
2022-08-07T02:07:50.463Z,9.711849
2022-08-07T02:08:46.863Z,9.711836
2022-08-07T02:09:52.796Z,9.711804
2022-08-07T02:10:48.768Z,9.711685
2022-08-07T02:12:04.032Z,9.711572
2022-08-07T02:12:50.073Z,9.711803
2022-08-07T02:13:57.512Z,9.711758
2022-08-07T02:14:46.815Z,9.711627
2022-08-07T02:15:45.806Z,9.711768
2022-08-07T02:16:45.802Z,9.711736
2022-08-07T02:17:49.576Z,9.711714
2022-08-07T02:18:47.252Z,9.711712
2022-08-07T02:20:05.846Z,9.711734
2022-08-07T02:20:48.706Z,9.711714
2022-08-07T02:21:56.224Z,9.711654
2022-08-07T02:22:46.748Z,9.711656
2022-08-07T02:23:46.744Z,9.711631
2022-08-07T02:24:45.748Z,9.711636
2022-08-07T02:26:31.973Z,9.711688
2022-08-07T02:26:46.716Z,9.711781
2022-08-07T02:27:51.910Z,9.711718
2022-08-07T02:28:46.700Z,9.711656
2022-08-07T02:29:50.921Z,9.711699
2022-08-07T02:30:46.676Z,9.711700
2022-08-07T02:31:45.679Z,9.711679
2022-08-07T02:33:00.581Z,9.711711
2022-08-07T02:34:03.295Z,9.711657
2022-08-07T02:34:48.971Z,9.711665
2022-08-07T02:36:30.727Z,9.711780
2022-08-07T02:36:46.628Z,9.711770
2022-08-07T02:37:45.626Z,9.711648
2022-08-07T02:38:50.868Z,9.711473
2022-08-07T02:40:02.526Z,9.711874
2022-08-07T02:40:46.785Z,9.711726
2022-08-07T02:41:50.499Z,9.712068
2022-08-07T02:42:46.577Z,9.711826
2022-08-07T02:43:48.935Z,9.711756
2022-08-07T02:44:45.775Z,9.712137
2022-08-07T02:46:00.593Z,9.712032
2022-08-07T02:46:52.506Z,9.712090
2022-08-07T02:47:49.139Z,9.711863
2022-08-07T02:48:47.055Z,9.711795
2022-08-07T02:49:57.993Z,9.711879
2022-08-07T02:50:46.523Z,9.711966
2022-08-07T02:51:51.835Z,9.711942
2022-08-07T02:52:48.702Z,9.712003
2022-08-07T02:53:45.498Z,9.711736
2022-08-07T02:54:45.484Z,9.711497
2022-08-07T02:56:02.662Z,9.711802
2022-08-07T02:56:46.466Z,9.711997
2022-08-07T02:57:46.727Z,9.711913
2022-08-07T02:58:47.350Z,9.711708
2022-08-07T02:59:45.449Z,9.711692
2022-08-07T03:00:47.525Z,9.711765
2022-08-07T03:01:47.260Z,9.711593
2022-08-07T03:02:54.444Z,9.711626
2022-08-07T03:03:50.570Z,9.713115
2022-08-07T03:04:45.398Z,9.713279
2022-08-07T03:05:45.410Z,9.712954
2022-08-07T03:06:45.871Z,9.712601
2022-08-07T03:08:07.598Z,9.712678
2022-08-07T03:08:46.367Z,9.712814
2022-08-07T03:09:48.241Z,9.712333
2022-08-07T03:10:47.369Z,9.712105
2022-08-07T03:11:52.123Z,9.711825
2022-08-07T03:12:46.335Z,9.711926
2022-08-07T03:13:49.660Z,9.711795
2022-08-07T03:14:48.398Z,9.711754
2022-08-07T03:15:56.716Z,9.711744
2022-08-07T03:16:46.300Z,9.711699
2022-08-07T03:17:53.955Z,9.711890
2022-08-07T03:18:46.285Z,9.711912
2022-08-07T03:19:45.276Z,9.711848
2022-08-07T03:20:46.285Z,9.712161
2022-08-07T03:21:50.318Z,9.711969
2022-08-07T03:22:50.368Z,9.711934
2022-08-07T03:24:19.443Z,9.711780
2022-08-07T03:24:46.232Z,9.711965
2022-08-07T03:25:45.226Z,9.711971
2022-08-07T03:26:51.230Z,9.711802
2022-08-07T03:28:09.371Z,9.711525
2022-08-07T03:28:46.204Z,9.711755
2022-08-07T03:29:49.645Z,9.711722
2022-08-07T03:30:46.180Z,9.711780
2022-08-07T03:31:46.376Z,9.711661
2022-08-07T03:32:48.994Z,9.711630
2022-08-07T03:33:46.151Z,9.711638
2022-08-07T03:34:47.598Z,9.711746
2022-08-07T03:35:50.543Z,9.711833
2022-08-07T03:36:45.136Z,9.711916
2022-08-07T03:37:46.220Z,9.712004
2022-08-07T03:38:46.116Z,9.711693
2022-08-07T03:39:59.316Z,9.711601
2022-08-07T03:40:46.217Z,9.711464
2022-08-07T03:41:47.475Z,9.711642
2022-08-07T03:42:45.094Z,9.711692
2022-08-07T03:43:57.096Z,9.711596
2022-08-07T03:44:47.098Z,9.711592
2022-08-07T03:45:47.794Z,9.711658
2022-08-07T03:47:10.837Z,9.711367
2022-08-07T03:47:47.842Z,9.711690
2022-08-07T03:49:01.973Z,9.711807
2022-08-07T03:49:51.940Z,9.711675
2022-08-07T03:50:55.844Z,9.711950
2022-08-07T03:51:47.244Z,9.711794
2022-08-07T03:52:45.007Z,9.711787
2022-08-07T03:54:05.915Z,9.711767
2022-08-07T03:54:54.444Z,9.711782
2022-08-07T03:55:58.365Z,9.711956
2022-08-07T03:57:07.089Z,9.711931
2022-08-07T03:58:33.650Z,9.711692
2022-08-07T03:59:09.283Z,9.711616
2022-08-07T03:59:46.481Z,9.711606
2022-08-07T04:00:46.480Z,9.711587
2022-08-07T04:01:45.728Z,9.711579
2022-08-07T04:02:47.334Z,9.711626
2022-08-07T04:03:53.407Z,9.711679
2022-08-07T04:04:45.905Z,9.711679
2022-08-07T04:05:45.590Z,9.711633
2022-08-07T04:06:44.884Z,9.711655
2022-08-07T04:07:45.239Z,9.711662
2022-08-07T04:08:44.871Z,9.711634
2022-08-07T04:09:50.525Z,9.711653
2022-08-07T04:10:54.427Z,9.711652
2022-08-07T04:12:25.455Z,9.711671
2022-08-07T04:12:46.470Z,9.711629
2022-08-07T04:14:09.451Z,9.711586
2022-08-07T04:14:47.787Z,9.711616
2022-08-07T04:15:45.598Z,9.711668
2022-08-07T04:16:58.338Z,9.711680
2022-08-07T04:18:58.500Z,9.711632
2022-08-07T04:19:01.406Z,9.711653
2022-08-07T04:19:52.764Z,9.711661
2022-08-07T04:20:54.603Z,9.711658
2022-08-07T04:21:59.479Z,9.711648
2022-08-07T04:22:53.419Z,9.711627
2022-08-07T04:24:04.480Z,9.711613
2022-08-07T04:24:45.746Z,9.711614
2022-08-07T04:25:44.739Z,9.711632
2022-08-07T04:26:44.724Z,9.711631
2022-08-07T04:27:46.075Z,9.711667
2022-08-07T04:28:45.710Z,9.711729
2022-08-07T04:29:58.538Z,9.711608
2022-08-07T04:30:56.902Z,9.711713
2022-08-07T04:32:03.052Z,9.711706
2022-08-07T04:32:47.872Z,9.711670
2022-08-07T04:33:44.671Z,9.711646
2022-08-07T04:34:44.671Z,9.711649
2022-08-07T04:35:44.649Z,9.711645
2022-08-07T04:36:48.691Z,9.711693
2022-08-07T04:38:03.368Z,9.711569
2022-08-07T04:38:46.562Z,9.711639
2022-08-07T04:39:47.922Z,9.711761
2022-08-07T04:40:51.887Z,9.711598
2022-08-07T04:41:50.464Z,9.711521
2022-08-07T04:42:45.602Z,9.711658
2022-08-07T04:44:12.654Z,9.711744
2022-08-07T04:45:02.723Z,9.711684
2022-08-07T04:46:00.979Z,9.711761
2022-08-07T04:46:59.639Z,9.711691
2022-08-07T04:47:58.887Z,9.711899
2022-08-07T04:48:45.556Z,9.711840
2022-08-07T04:49:47.362Z,9.711823
2022-08-07T04:50:52.810Z,9.711742
2022-08-07T04:51:45.530Z,9.711562
2022-08-07T04:52:51.237Z,9.711500
2022-08-07T04:54:02.016Z,9.711435
2022-08-07T04:54:50.356Z,9.711814
2022-08-07T04:58:10.152Z,9.712010
2022-08-07T04:58:11.027Z,9.712104
2022-08-07T04:58:12.540Z,9.712132
2022-08-07T05:00:12.833Z,9.712391
2022-08-07T05:00:45.516Z,9.712172
2022-08-07T05:01:44.443Z,9.712207
2022-08-07T05:02:44.441Z,9.712105
2022-08-07T05:04:07.064Z,9.711986
2022-08-07T05:04:50.169Z,9.712074
2022-08-07T05:05:52.155Z,9.711911
2022-08-07T05:06:51.351Z,9.712018
2022-08-07T05:07:45.458Z,9.712022
2022-08-07T05:08:59.519Z,9.711776
2022-08-07T05:09:46.970Z,9.711985
2022-08-07T05:10:44.368Z,9.711978
2022-08-07T05:11:57.333Z,9.711432
2022-08-07T05:12:46.314Z,9.711862
2022-08-07T05:14:55.529Z,9.711422
2022-08-07T05:14:55.622Z,9.711432
2022-08-07T05:15:45.323Z,9.711576
2022-08-07T05:16:45.410Z,9.712309
2022-08-07T05:17:52.203Z,9.712276
2022-08-07T05:18:45.295Z,9.711966
2022-08-07T05:19:45.087Z,9.712173
2022-08-07T05:20:44.366Z,9.712124
2022-08-07T05:22:00.093Z,9.711937
2022-08-07T05:22:45.258Z,9.712043
2022-08-07T05:23:44.252Z,9.712014
2022-08-07T05:24:44.255Z,9.711836
2022-08-07T05:26:12.899Z,9.712162
2022-08-07T05:26:46.234Z,9.712307
2022-08-07T05:28:02.554Z,9.712189
2022-08-07T05:28:48.540Z,9.712217
2022-08-07T05:29:50.985Z,9.711972
2022-08-07T05:30:47.145Z,9.711897
2022-08-07T05:31:47.471Z,9.711957
2022-08-07T05:32:45.180Z,9.712193
2022-08-07T05:34:01.090Z,9.712384
2022-08-07T05:34:45.165Z,9.712578
2022-08-07T05:35:44.160Z,9.712480
2022-08-07T05:36:44.154Z,9.712243
2022-08-07T05:37:45.139Z,9.712281
2022-08-07T05:39:00.981Z,9.712571
2022-08-07T05:40:13.877Z,9.712596
2022-08-07T05:40:51.365Z,9.712626
2022-08-07T05:42:01.194Z,9.714065
2022-08-07T05:42:55.958Z,9.713381
2022-08-07T05:44:08.472Z,9.713170
2022-08-07T05:44:46.764Z,9.713276
2022-08-07T05:45:46.499Z,9.712341
2022-08-07T05:46:44.074Z,9.712239
2022-08-07T05:48:01.596Z,9.712608
2022-08-07T05:48:58.354Z,9.712669
2022-08-07T05:49:45.043Z,9.712570
2022-08-07T05:50:44.044Z,9.712415
2022-08-07T05:51:46.213Z,9.712688
2022-08-07T05:52:44.034Z,9.712519
2022-08-07T05:54:12.611Z,9.712343
2022-08-07T05:54:55.706Z,9.712234
2022-08-07T05:56:02.014Z,9.712535
2022-08-07T05:56:44.988Z,9.712656
2022-08-07T05:57:44.873Z,9.712268
2022-08-07T05:58:49.261Z,9.712268
2022-08-07T05:59:55.720Z,9.712143
2022-08-07T06:00:46.308Z,9.712203
2022-08-07T06:01:45.004Z,9.712255
2022-08-07T06:02:43.943Z,9.712237
2022-08-07T06:03:56.627Z,9.712035
2022-08-07T06:04:44.935Z,9.712062
2022-08-07T06:05:48.895Z,9.712289
2022-08-07T06:06:46.244Z,9.712047
2022-08-07T06:08:12.339Z,9.712039
2022-08-07T06:08:45.155Z,9.712020
2022-08-07T06:09:56.594Z,9.712092
2022-08-07T06:10:44.998Z,9.712274
2022-08-07T06:11:43.871Z,9.712131
2022-08-07T06:12:43.857Z,9.712000
2022-08-07T06:14:13.174Z,9.712098
2022-08-07T06:14:49.453Z,9.712193
2022-08-07T06:15:45.316Z,9.712193
2022-08-07T06:16:43.827Z,9.711827
2022-08-07T06:17:53.383Z,9.711621
2022-08-07T06:18:51.569Z,9.711820
2022-08-07T06:19:57.880Z,9.711712
2022-08-07T06:20:50.955Z,9.711644
2022-08-07T06:22:16.971Z,9.711686
2022-08-07T06:22:50.677Z,9.711790
2022-08-07T06:23:46.826Z,9.711807
2022-08-07T06:24:58.159Z,9.711791
2022-08-07T06:25:54.095Z,9.711775
2022-08-07T06:26:45.588Z,9.711775
2022-08-07T06:28:00.904Z,9.711749
2022-08-07T06:28:44.732Z,9.711710
2022-08-07T06:29:43.721Z,9.711725
2022-08-07T06:30:45.977Z,9.711604
2022-08-07T06:31:50.028Z,9.711601
2022-08-07T06:32:43.711Z,9.711658
2022-08-07T06:33:43.694Z,9.711807
2022-08-07T06:34:45.363Z,9.711855
2022-08-07T06:35:45.534Z,9.711929
2022-08-07T06:36:44.670Z,9.711721
2022-08-07T06:37:44.755Z,9.711722
2022-08-07T06:38:59.433Z,9.711772
2022-08-07T06:40:17.434Z,9.711370
2022-08-07T06:40:45.950Z,9.711509
2022-08-07T06:42:02.477Z,9.711492
2022-08-07T06:42:46.635Z,9.711532
2022-08-07T06:43:46.526Z,9.711652
2022-08-07T06:44:44.607Z,9.711733
2022-08-07T06:45:44.836Z,9.711738
2022-08-07T06:46:43.596Z,9.711780
2022-08-07T06:47:44.588Z,9.711798
2022-08-07T06:48:44.804Z,9.711735
2022-08-07T06:49:52.116Z,9.711789
2022-08-07T06:50:47.845Z,9.711764
2022-08-07T06:51:49.943Z,9.711740
2022-08-07T06:52:45.197Z,9.711704
2022-08-07T06:55:28.773Z,9.711765
2022-08-07T06:55:31.492Z,9.712118
2022-08-07T06:55:53.396Z,9.711902
2022-08-07T06:56:48.622Z,9.711966
2022-08-07T06:57:49.930Z,9.711783
2022-08-07T07:00:12.200Z,9.711762
2022-08-07T07:00:12.531Z,9.711935
2022-08-07T07:00:44.474Z,9.711860
2022-08-07T07:01:48.662Z,9.711734
2022-08-07T07:02:54.553Z,9.711676
2022-08-07T07:03:48.157Z,9.711669
2022-08-07T07:04:43.631Z,9.711675
2022-08-07T07:06:05.453Z,9.711674
2022-08-07T07:07:00.474Z,9.711663
2022-08-07T07:07:59.816Z,9.711697
2022-08-07T07:08:46.656Z,9.711720
2022-08-07T07:09:43.409Z,9.711802
2022-08-07T07:10:47.386Z,9.711700
2022-08-07T07:12:08.867Z,9.711646
2022-08-07T07:12:48.935Z,9.711633
2022-08-07T07:13:58.654Z,9.711707
2022-08-07T07:14:44.363Z,9.711720
2022-08-07T07:15:43.426Z,9.711753
2022-08-07T07:16:49.749Z,9.711798
2022-08-07T07:17:45.443Z,9.711757
2022-08-07T07:18:48.190Z,9.711741
2022-08-07T07:19:57.068Z,9.711743
2022-08-07T07:20:44.380Z,9.711710
2022-08-07T07:22:05.039Z,9.711720
2022-08-07T07:24:05.386Z,9.711704
2022-08-07T07:24:08.570Z,9.711698
2022-08-07T07:24:57.061Z,9.711749
2022-08-07T07:26:33.003Z,9.711685
2022-08-07T07:26:51.792Z,9.711699
2022-08-07T07:28:02.212Z,9.711699
2022-08-07T07:29:39.180Z,9.711695
2022-08-07T07:30:08.772Z,9.711600
2022-08-07T07:30:44.240Z,9.711677
2022-08-07T07:31:44.527Z,9.711740
2022-08-07T07:32:43.221Z,9.711711
2022-08-07T07:33:43.222Z,9.711656
2022-08-07T07:34:44.219Z,9.711662
2022-08-07T07:35:44.036Z,9.711658
2022-08-07T07:36:44.188Z,9.711680
2022-08-07T07:37:45.497Z,9.711599
2022-08-07T07:38:46.143Z,9.711679
2022-08-07T07:39:52.262Z,9.711637
2022-08-07T07:40:44.193Z,9.711700
2022-08-07T07:41:50.816Z,9.711696
2022-08-07T07:42:47.088Z,9.711683
2022-08-07T07:43:47.796Z,9.711719
2022-08-07T07:44:45.045Z,9.711478
2022-08-07T07:46:38.022Z,9.711408
2022-08-07T07:46:55.640Z,9.711819
2022-08-07T07:47:52.720Z,9.711806
2022-08-07T07:48:45.526Z,9.711819
2022-08-07T07:50:34.944Z,9.711884
2022-08-07T07:50:44.081Z,9.711822
2022-08-07T07:51:58.270Z,9.711718
2022-08-07T07:52:44.046Z,9.711544
2022-08-07T07:53:52.035Z,9.711717
2022-08-07T07:54:50.839Z,9.711805
2022-08-07T07:55:45.734Z,9.711797
2022-08-07T07:56:44.041Z,9.711663
2022-08-07T07:57:52.223Z,9.711812
2022-08-07T07:58:44.004Z,9.711730
2022-08-07T07:59:52.574Z,9.711767
2022-08-07T08:00:47.803Z,9.711656
2022-08-07T08:02:02.379Z,9.711773
2022-08-07T08:03:05.799Z,9.711772
2022-08-07T08:04:10.990Z,9.711768
2022-08-07T08:04:44.097Z,9.711845
2022-08-07T08:05:54.833Z,9.711818
2022-08-07T08:06:52.189Z,9.711658
2022-08-07T08:07:59.976Z,9.711709
2022-08-07T08:08:44.923Z,9.711759
2022-08-07T08:09:52.343Z,9.711761
2022-08-07T08:10:43.909Z,9.711692
2022-08-07T08:11:59.834Z,9.711725
2022-08-07T08:12:52.252Z,9.711677
2022-08-07T08:13:54.130Z,9.711766
2022-08-07T08:14:43.879Z,9.711714
2022-08-07T08:15:58.046Z,9.711754
2022-08-07T08:16:50.474Z,9.711806
2022-08-07T08:17:57.097Z,9.711818
2022-08-07T08:18:45.154Z,9.711635
2022-08-07T08:20:17.276Z,9.711806
2022-08-07T08:20:43.826Z,9.711892
2022-08-07T08:22:00.554Z,9.712047
2022-08-07T08:22:54.107Z,9.711977
2022-08-07T08:23:43.821Z,9.711881
2022-08-07T08:24:45.305Z,9.711998
2022-08-07T08:25:49.455Z,9.711908
2022-08-07T08:26:43.807Z,9.711742
2022-08-07T08:27:43.975Z,9.711486
2022-08-07T08:28:45.109Z,9.711605
2022-08-07T08:29:54.201Z,9.711851
2022-08-07T08:30:50.888Z,9.712010
2022-08-07T08:31:59.038Z,9.712280
2022-08-07T08:32:48.443Z,9.711693
2022-08-07T08:33:48.972Z,9.711629
2022-08-07T08:34:44.957Z,9.711647
2022-08-07T08:35:47.103Z,9.711720
2022-08-07T08:36:46.298Z,9.711685
2022-08-07T08:38:01.579Z,9.711702
2022-08-07T08:38:44.626Z,9.711682
2022-08-07T08:39:55.084Z,9.711687
2022-08-07T08:40:43.908Z,9.711708
2022-08-07T08:41:58.234Z,9.711683
2022-08-07T08:42:43.660Z,9.711690
2022-08-07T08:43:43.327Z,9.711683
2022-08-07T08:44:44.485Z,9.711688
2022-08-07T08:45:59.261Z,9.711727
2022-08-07T08:46:44.948Z,9.711706
2022-08-07T08:47:52.784Z,9.711691
2022-08-07T08:48:43.613Z,9.711714
2022-08-07T08:49:46.833Z,9.711688
2022-08-07T08:50:43.597Z,9.711677
2022-08-07T08:52:13.119Z,9.711711
2022-08-07T08:52:54.205Z,9.711716
2022-08-07T08:53:43.567Z,9.711699
2022-08-07T08:54:42.572Z,9.711684
2022-08-07T08:55:55.309Z,9.711641
2022-08-07T08:56:47.517Z,9.711636
2022-08-07T08:57:42.540Z,9.711583
2022-08-07T08:58:42.531Z,9.711489
2022-08-07T08:59:48.274Z,9.711556
2022-08-07T09:00:48.622Z,9.711663
2022-08-07T09:01:46.609Z,9.711568
2022-08-07T09:02:42.634Z,9.711622
2022-08-07T09:03:48.094Z,9.711537
2022-08-07T09:04:43.490Z,9.711756
2022-08-07T09:05:42.488Z,9.711942
2022-08-07T09:06:42.884Z,9.712255
2022-08-07T09:07:46.272Z,9.712491
2022-08-07T09:08:43.455Z,9.712414
2022-08-07T09:09:42.449Z,9.712429
2022-08-07T09:10:44.329Z,9.712317
2022-08-07T09:11:51.238Z,9.712029
2022-08-07T09:12:53.563Z,9.711822
2022-08-07T09:13:42.419Z,9.711784
2022-08-07T09:14:42.414Z,9.711535
2022-08-07T09:16:22.033Z,9.711581
2022-08-07T09:16:43.409Z,9.711551
2022-08-07T09:17:58.941Z,9.711420
2022-08-07T09:18:47.374Z,9.711326
2022-08-07T09:19:52.214Z,9.711293
2022-08-07T09:20:43.372Z,9.711506
2022-08-07T09:22:22.398Z,9.711571
2022-08-07T09:24:32.306Z,9.711487
2022-08-07T09:24:33.845Z,9.711523
2022-08-07T09:24:59.428Z,9.711601
2022-08-07T09:25:43.340Z,9.711598
2022-08-07T09:26:47.807Z,9.711783
2022-08-07T09:28:00.436Z,9.711823
2022-08-07T09:30:06.239Z,9.711757
2022-08-07T09:30:06.370Z,9.711771
2022-08-07T09:30:46.166Z,9.711722
2022-08-07T09:31:49.139Z,9.711790
2022-08-07T09:32:43.290Z,9.711740
2022-08-07T09:33:56.817Z,9.711719
2022-08-07T09:34:43.310Z,9.711697
2022-08-07T09:36:03.282Z,9.711699
2022-08-07T09:36:46.818Z,9.711655
2022-08-07T09:37:48.194Z,9.711600
2022-08-07T09:38:43.223Z,9.711719
2022-08-07T09:39:54.794Z,9.711695
2022-08-07T09:40:43.205Z,9.711673
2022-08-07T09:41:43.211Z,9.711699
2022-08-07T09:42:44.090Z,9.711809
2022-08-07T09:44:05.725Z,9.711765
2022-08-07T09:44:52.198Z,9.711631
2022-08-07T09:47:25.813Z,9.711634
2022-08-07T09:47:51.623Z,9.711544
2022-08-07T09:47:59.170Z,9.711667
2022-08-07T09:49:02.567Z,9.711628
2022-08-07T09:49:59.553Z,9.711653
2022-08-07T09:50:43.132Z,9.711494
2022-08-07T09:52:16.305Z,9.711706
2022-08-07T09:52:43.113Z,9.711798
2022-08-07T09:53:50.108Z,9.711750
2022-08-07T09:54:43.114Z,9.711662
2022-08-07T09:56:03.221Z,9.711576
2022-08-07T09:56:43.084Z,9.711621
2022-08-07T09:57:46.622Z,9.711644
2022-08-07T09:58:42.421Z,9.711707
2022-08-07T09:59:46.105Z,9.711721
2022-08-07T10:00:42.059Z,9.711642
2022-08-07T10:01:51.275Z,9.711561
2022-08-07T10:02:53.666Z,9.711517
2022-08-07T10:04:06.535Z,9.711504
2022-08-07T10:04:46.063Z,9.711596
2022-08-07T10:06:00.748Z,9.711646
2022-08-07T10:06:49.107Z,9.711592
2022-08-07T10:07:53.755Z,9.711631
2022-08-07T10:08:42.994Z,9.711638
2022-08-07T10:09:59.308Z,9.711601
2022-08-07T10:11:16.297Z,9.711613
2022-08-07T10:12:01.860Z,9.711591
2022-08-07T10:12:52.785Z,9.711570
2022-08-07T10:14:00.243Z,9.711623
2022-08-07T10:14:43.675Z,9.711675
2022-08-07T10:15:44.675Z,9.711644
2022-08-07T10:16:41.927Z,9.711627
2022-08-07T10:18:00.975Z,9.711606
2022-08-07T10:18:42.917Z,9.711596
2022-08-07T10:19:41.993Z,9.711630
2022-08-07T10:20:41.892Z,9.711570
2022-08-07T10:22:12.418Z,9.711592
2022-08-07T10:22:43.226Z,9.711616
2022-08-07T10:24:05.920Z,9.711616
2022-08-07T10:24:42.871Z,9.711617
2022-08-07T10:25:43.077Z,9.711592
2022-08-07T10:26:41.856Z,9.711538
2022-08-07T10:27:46.228Z,9.711576
2022-08-07T10:28:43.437Z,9.711548
2022-08-07T10:29:45.905Z,9.711596
2022-08-07T10:30:43.827Z,9.711579
2022-08-07T10:31:42.994Z,9.711526
2022-08-07T10:32:52.849Z,9.711594
2022-08-07T10:34:05.914Z,9.711783
2022-08-07T10:34:45.259Z,9.711762
2022-08-07T10:35:56.601Z,9.711654
2022-08-07T10:36:42.809Z,9.711670
2022-08-07T10:38:00.197Z,9.711776
2022-08-07T10:38:48.845Z,9.711694
2022-08-07T10:40:03.350Z,9.711779
2022-08-07T10:40:42.753Z,9.711786
2022-08-07T10:41:51.261Z,9.711893
2022-08-07T10:42:42.727Z,9.712045
2022-08-07T10:43:41.733Z,9.711994
2022-08-07T10:44:45.373Z,9.711752
2022-08-07T10:45:44.420Z,9.711729
2022-08-07T10:46:41.707Z,9.711635
2022-08-07T10:47:51.432Z,9.711619
2022-08-07T10:48:44.163Z,9.711656
2022-08-07T10:49:41.682Z,9.711766
2022-08-07T10:50:44.900Z,9.711924
2022-08-07T10:52:01.909Z,9.711944
2022-08-07T10:52:42.785Z,9.712195
2022-08-07T10:53:44.693Z,9.712185
2022-08-07T10:54:42.200Z,9.712138
2022-08-07T10:55:42.638Z,9.712061
2022-08-07T10:56:41.912Z,9.711933
2022-08-07T10:57:41.631Z,9.711948
2022-08-07T10:58:41.654Z,9.711843
2022-08-07T10:59:45.381Z,9.711818
2022-08-07T11:00:43.300Z,9.711736
2022-08-07T11:01:51.999Z,9.711847
2022-08-07T11:02:42.620Z,9.711670
2022-08-07T11:03:52.740Z,9.711579
2022-08-07T11:04:42.566Z,9.711652
2022-08-07T11:05:50.982Z,9.711567
2022-08-07T11:06:44.529Z,9.711659
2022-08-07T11:08:00.297Z,9.711740
2022-08-07T11:08:42.539Z,9.711650
2022-08-07T11:10:09.318Z,9.711722
2022-08-07T11:10:42.522Z,9.711930
2022-08-07T11:11:42.773Z,9.711828
2022-08-07T11:12:43.172Z,9.711567
2022-08-07T11:14:44.339Z,9.711596
2022-08-07T11:14:59.766Z,9.711693
2022-08-07T11:15:42.504Z,9.711691
2022-08-07T11:16:42.479Z,9.711724
2022-08-07T11:17:44.324Z,9.711754
2022-08-07T11:18:41.466Z,9.711723
2022-08-07T11:19:41.489Z,9.711828
2022-08-07T11:20:41.451Z,9.711659
2022-08-07T11:21:43.094Z,9.711593
2022-08-07T11:22:45.651Z,9.711507
2022-08-07T11:23:41.427Z,9.711705
2022-08-07T11:24:45.512Z,9.711768
2022-08-07T11:25:48.265Z,9.711881
2022-08-07T11:26:48.170Z,9.711845
2022-08-07T11:28:03.036Z,9.711722
2022-08-07T11:28:42.469Z,9.711660
2022-08-07T11:29:47.254Z,9.711759
2022-08-07T11:30:42.505Z,9.711849
2022-08-07T11:31:41.363Z,9.711762
2022-08-07T11:32:41.355Z,9.711801
2022-08-07T11:33:54.385Z,9.711591
2022-08-07T11:34:42.544Z,9.711669
2022-08-07T11:35:59.855Z,9.711720
2022-08-07T11:36:42.340Z,9.711796
2022-08-07T11:38:10.278Z,9.711645
2022-08-07T11:38:42.307Z,9.711707
2022-08-07T11:40:00.138Z,9.711679
2022-08-07T11:40:42.291Z,9.711843
2022-08-07T11:42:01.922Z,9.711841
2022-08-07T11:42:42.271Z,9.711841
2022-08-07T11:44:11.346Z,9.711826
2022-08-07T11:44:52.296Z,9.711856
2022-08-07T11:45:53.450Z,9.711999
2022-08-07T11:46:42.241Z,9.711889
2022-08-07T11:47:58.912Z,9.711925
2022-08-07T11:48:53.824Z,9.711841
2022-08-07T11:50:11.313Z,9.712013
2022-08-07T11:50:44.310Z,9.711744